This is the latest recevied weather packets stored in our database for station/object DO7CRZ-10. If no packets are shown the sender has not sent any weather packets the latest 1 day(s).
| Time | Temp. | Humidity | Pressure | Rain* | Wind** | Luminosity | Snow |
|---|---|---|---|---|---|---|---|
| 1778089824 | 17.78° C | 57% | 1004 hPa | - | - | - | - |
| 1778088078 | 18.89° C | 55% | 1004 hPa | - | - | - | - |
| 1778081095 | 23.33° C | 50% | 1004 hPa | - | - | - | - |
| 1778077603 | 23.89° C | 47% | 1004 hPa | - | - | - | - |
| 1778074111 | 22.78° C | 49% | 1005 hPa | - | - | - | - |
| 1778067128 | 19.44° C | 55% | 1005 hPa | - | - | - | - |
| 1778065382 | 20.56° C | 54% | 1005 hPa | - | - | - | - |
| 1778063636 | 21.67° C | 52% | 1005 hPa | - | - | - | - |
| 1778061890 | 19.44° C | 56% | 1005 hPa | - | - | - | - |
| 1778056653 | 19.44° C | 58% | 1004 hPa | - | - | - | - |
| 1778054907 | 19.44° C | 60% | 1004 hPa | - | - | - | - |
| 1778053161 | 18.33° C | 62% | 1004 hPa | - | - | - | - |
| 1778051415 | 17.78° C | 64% | 1004 hPa | - | - | - | - |
| 1778044431 | 13.89° C | 70% | 1004 hPa | - | - | - | - |
| 1778042685 | 14.44° C | 73% | 1004 hPa | - | - | - | - |
| 1778040939 | 13.33° C | 75% | 1004 hPa | - | - | - | - |
| 1778039193 | 12.22° C | 72% | 1004 hPa | - | - | - | - |
| 1778037447 | 12.22° C | 70% | 1004 hPa | - | - | - | - |
| 1778035701 | 12.78° C | 69% | 1004 hPa | - | - | - | - |
| 1778033956 | 13.33° C | 67% | 1004 hPa | - | - | - | - |
| 1778032210 | 13.33° C | 68% | 1004 hPa | - | - | - | - |
| 1778030464 | 13.33° C | 69% | 1004 hPa | - | - | - | - |
| 1778028718 | 13.33° C | 65% | 1004 hPa | - | - | - | - |
| 1778023481 | 13.89° C | 60% | 1005 hPa | - | - | - | - |
| 1778021735 | 14.44° C | 59% | 1006 hPa | - | - | - | - |
* Rain since midnight (hover to see other rain measurements)
** Current wind speed in m/s (hover to see current wind gust speed)